sensor_id;sensor_type;location;lat;lon;timestamp;P1;durP1;ratioP1;P2;durP2;ratioP2
18716;SDS011;9487;50.892;6.906;2023-05-07T00:00:51;5.07;;;4.67;;
18716;SDS011;9487;50.892;6.906;2023-05-07T00:03:19;5.03;;;4.63;;
18716;SDS011;9487;50.892;6.906;2023-05-07T00:05:46;4.90;;;4.50;;
18716;SDS011;9487;50.892;6.906;2023-05-07T00:08:13;4.60;;;4.30;;
18716;SDS011;9487;50.892;6.906;2023-05-07T00:10:40;5.07;;;4.60;;
18716;SDS011;9487;50.892;6.906;2023-05-07T00:13:07;5.40;;;4.90;;
18716;SDS011;9487;50.892;6.906;2023-05-07T00:15:34;6.40;;;5.40;;
18716;SDS011;9487;50.892;6.906;2023-05-07T00:18:01;7.90;;;7.03;;
18716;SDS011;9487;50.892;6.906;2023-05-07T00:20:29;7.17;;;5.77;;
18716;SDS011;9487;50.892;6.906;2023-05-07T00:22:56;6.50;;;5.70;;
18716;SDS011;9487;50.892;6.906;2023-05-07T00:25:22;5.67;;;5.13;;
18716;SDS011;9487;50.892;6.906;2023-05-07T00:27:49;5.87;;;5.27;;
18716;SDS011;9487;50.892;6.906;2023-05-07T00:30:16;5.97;;;5.37;;
18716;SDS011;9487;50.892;6.906;2023-05-07T00:32:43;6.23;;;5.63;;
18716;SDS011;9487;50.892;6.906;2023-05-07T00:35:11;5.50;;;5.00;;
18716;SDS011;9487;50.892;6.906;2023-05-07T00:37:39;5.17;;;4.40;;
18716;SDS011;9487;50.892;6.906;2023-05-07T00:40:06;5.27;;;4.77;;
18716;SDS011;9487;50.892;6.906;2023-05-07T00:42:34;5.13;;;4.63;;
18716;SDS011;9487;50.892;6.906;2023-05-07T00:45:01;4.60;;;4.20;;
18716;SDS011;9487;50.892;6.906;2023-05-07T00:47:29;4.70;;;4.20;;
18716;SDS011;9487;50.892;6.906;2023-05-07T00:49:56;5.17;;;4.47;;
18716;SDS011;9487;50.892;6.906;2023-05-07T00:52:25;4.70;;;3.90;;
18716;SDS011;9487;50.892;6.906;2023-05-07T00:54:53;4.60;;;4.20;;
18716;SDS011;9487;50.892;6.906;2023-05-07T00:57:21;4.90;;;4.17;;
18716;SDS011;9487;50.892;6.906;2023-05-07T00:59:50;5.27;;;4.77;;
18716;SDS011;9487;50.892;6.906;2023-05-07T01:02:18;4.60;;;4.20;;
18716;SDS011;9487;50.892;6.906;2023-05-07T01:04:44;5.13;;;4.70;;
18716;SDS011;9487;50.892;6.906;2023-05-07T01:07:11;4.70;;;4.20;;
18716;SDS011;9487;50.892;6.906;2023-05-07T01:09:39;5.43;;;4.83;;
18716;SDS011;9487;50.892;6.906;2023-05-07T01:12:08;5.03;;;4.63;;
18716;SDS011;9487;50.892;6.906;2023-05-07T01:14:35;7.07;;;4.43;;
18716;SDS011;9487;50.892;6.906;2023-05-07T01:17:02;4.73;;;4.33;;
18716;SDS011;9487;50.892;6.906;2023-05-07T01:19:29;4.30;;;4.00;;
18716;SDS011;9487;50.892;6.906;2023-05-07T01:22:00;4.43;;;4.10;;
18716;SDS011;9487;50.892;6.906;2023-05-07T01:24:31;4.57;;;4.17;;
18716;SDS011;9487;50.892;6.906;2023-05-07T01:26:58;4.63;;;3.80;;
18716;SDS011;9487;50.892;6.906;2023-05-07T01:29:26;4.97;;;3.90;;
18716;SDS011;9487;50.892;6.906;2023-05-07T01:31:53;4.60;;;4.07;;
18716;SDS011;9487;50.892;6.906;2023-05-07T01:34:20;4.40;;;4.00;;
18716;SDS011;9487;50.892;6.906;2023-05-07T01:36:48;5.53;;;4.40;;
18716;SDS011;9487;50.892;6.906;2023-05-07T01:39:15;5.23;;;3.77;;
18716;SDS011;9487;50.892;6.906;2023-05-07T01:41:44;4.60;;;4.20;;
18716;SDS011;9487;50.892;6.906;2023-05-07T01:44:12;5.10;;;4.70;;
18716;SDS011;9487;50.892;6.906;2023-05-07T01:46:40;4.50;;;4.10;;
18716;SDS011;9487;50.892;6.906;2023-05-07T01:49:07;4.37;;;3.97;;
18716;SDS011;9487;50.892;6.906;2023-05-07T01:51:34;5.03;;;4.50;;
18716;SDS011;9487;50.892;6.906;2023-05-07T01:54:02;4.90;;;4.50;;
18716;SDS011;9487;50.892;6.906;2023-05-07T01:56:29;4.70;;;4.30;;
18716;SDS011;9487;50.892;6.906;2023-05-07T01:58:57;4.53;;;4.17;;
18716;SDS011;9487;50.892;6.906;2023-05-07T02:01:24;4.73;;;4.33;;
18716;SDS011;9487;50.892;6.906;2023-05-07T02:03:51;4.40;;;4.00;;
18716;SDS011;9487;50.892;6.906;2023-05-07T02:06:18;4.57;;;4.17;;
18716;SDS011;9487;50.892;6.906;2023-05-07T02:08:46;4.73;;;4.33;;
18716;SDS011;9487;50.892;6.906;2023-05-07T02:11:13;4.60;;;4.20;;
18716;SDS011;9487;50.892;6.906;2023-05-07T02:13:40;4.90;;;4.50;;
18716;SDS011;9487;50.892;6.906;2023-05-07T02:16:08;4.47;;;4.07;;
18716;SDS011;9487;50.892;6.906;2023-05-07T02:18:35;4.17;;;3.87;;
18716;SDS011;9487;50.892;6.906;2023-05-07T02:21:02;4.43;;;4.03;;
18716;SDS011;9487;50.892;6.906;2023-05-07T02:23:29;4.40;;;4.00;;
18716;SDS011;9487;50.892;6.906;2023-05-07T02:25:56;3.90;;;3.60;;
18716;SDS011;9487;50.892;6.906;2023-05-07T02:28:23;4.93;;;4.47;;
18716;SDS011;9487;50.892;6.906;2023-05-07T02:30:50;4.37;;;3.97;;
18716;SDS011;9487;50.892;6.906;2023-05-07T02:33:18;4.37;;;4.00;;
18716;SDS011;9487;50.892;6.906;2023-05-07T02:35:45;4.40;;;4.00;;
18716;SDS011;9487;50.892;6.906;2023-05-07T02:38:11;4.90;;;4.50;;
18716;SDS011;9487;50.892;6.906;2023-05-07T02:40:38;4.00;;;3.70;;
18716;SDS011;9487;50.892;6.906;2023-05-07T02:43:05;4.90;;;4.50;;
18716;SDS011;9487;50.892;6.906;2023-05-07T02:45:32;4.00;;;3.60;;
18716;SDS011;9487;50.892;6.906;2023-05-07T02:47:59;5.00;;;4.50;;
18716;SDS011;9487;50.892;6.906;2023-05-07T02:50:27;4.07;;;3.67;;
18716;SDS011;9487;50.892;6.906;2023-05-07T02:52:53;5.00;;;4.60;;
18716;SDS011;9487;50.892;6.906;2023-05-07T02:55:20;4.27;;;3.93;;
18716;SDS011;9487;50.892;6.906;2023-05-07T02:57:47;4.33;;;4.03;;
18716;SDS011;9487;50.892;6.906;2023-05-07T03:00:14;4.70;;;4.13;;
18716;SDS011;9487;50.892;6.906;2023-05-07T03:02:42;4.47;;;4.10;;
18716;SDS011;9487;50.892;6.906;2023-05-07T03:05:09;4.30;;;3.90;;
18716;SDS011;9487;50.892;6.906;2023-05-07T03:07:38;4.10;;;3.70;;
18716;SDS011;9487;50.892;6.906;2023-05-07T03:10:06;4.97;;;4.10;;
18716;SDS011;9487;50.892;6.906;2023-05-07T03:12:33;4.37;;;3.97;;
18716;SDS011;9487;50.892;6.906;2023-05-07T03:15:00;5.63;;;3.83;;
18716;SDS011;9487;50.892;6.906;2023-05-07T03:17:27;4.40;;;4.00;;
18716;SDS011;9487;50.892;6.906;2023-05-07T03:19:54;4.83;;;3.83;;
18716;SDS011;9487;50.892;6.906;2023-05-07T03:22:21;5.03;;;4.53;;
18716;SDS011;9487;50.892;6.906;2023-05-07T03:24:49;4.40;;;4.00;;
18716;SDS011;9487;50.892;6.906;2023-05-07T03:27:16;4.27;;;3.87;;
18716;SDS011;9487;50.892;6.906;2023-05-07T03:29:43;4.13;;;3.73;;
18716;SDS011;9487;50.892;6.906;2023-05-07T03:32:12;4.30;;;3.90;;
18716;SDS011;9487;50.892;6.906;2023-05-07T03:34:39;4.40;;;4.00;;
18716;SDS011;9487;50.892;6.906;2023-05-07T03:37:06;4.23;;;3.83;;
18716;SDS011;9487;50.892;6.906;2023-05-07T03:39:33;3.90;;;3.50;;
18716;SDS011;9487;50.892;6.906;2023-05-07T03:42:01;5.40;;;3.83;;
18716;SDS011;9487;50.892;6.906;2023-05-07T03:44:28;5.07;;;3.70;;
18716;SDS011;9487;50.892;6.906;2023-05-07T03:46:55;4.00;;;3.70;;
18716;SDS011;9487;50.892;6.906;2023-05-07T03:49:22;3.90;;;3.60;;
18716;SDS011;9487;50.892;6.906;2023-05-07T03:51:49;4.37;;;3.90;;
18716;SDS011;9487;50.892;6.906;2023-05-07T03:54:15;4.30;;;3.90;;
18716;SDS011;9487;50.892;6.906;2023-05-07T03:56:42;4.77;;;4.30;;
18716;SDS011;9487;50.892;6.906;2023-05-07T03:59:11;4.10;;;3.70;;
18716;SDS011;9487;50.892;6.906;2023-05-07T04:01:39;3.83;;;3.53;;
18716;SDS011;9487;50.892;6.906;2023-05-07T04:04:07;5.43;;;4.67;;
18716;SDS011;9487;50.892;6.906;2023-05-07T04:09:01;4.53;;;4.17;;
18716;SDS011;9487;50.892;6.906;2023-05-07T04:11:28;4.30;;;3.90;;
18716;SDS011;9487;50.892;6.906;2023-05-07T04:13:55;6.33;;;4.53;;
18716;SDS011;9487;50.892;6.906;2023-05-07T04:16:23;4.60;;;4.20;;
18716;SDS011;9487;50.892;6.906;2023-05-07T04:18:50;4.43;;;4.03;;
18716;SDS011;9487;50.892;6.906;2023-05-07T04:21:17;4.67;;;4.27;;
18716;SDS011;9487;50.892;6.906;2023-05-07T04:23:46;4.30;;;3.90;;
18716;SDS011;9487;50.892;6.906;2023-05-07T04:26:13;4.13;;;3.83;;
18716;SDS011;9487;50.892;6.906;2023-05-07T04:28:41;4.70;;;4.27;;
18716;SDS011;9487;50.892;6.906;2023-05-07T04:31:08;4.10;;;3.80;;
18716;SDS011;9487;50.892;6.906;2023-05-07T04:33:36;4.50;;;3.97;;
18716;SDS011;9487;50.892;6.906;2023-05-07T04:36:03;4.50;;;4.10;;
18716;SDS011;9487;50.892;6.906;2023-05-07T04:38:30;4.37;;;3.97;;
18716;SDS011;9487;50.892;6.906;2023-05-07T04:40:58;4.20;;;3.90;;
18716;SDS011;9487;50.892;6.906;2023-05-07T04:43:30;4.67;;;4.27;;
18716;SDS011;9487;50.892;6.906;2023-05-07T04:45:56;4.53;;;3.57;;
18716;SDS011;9487;50.892;6.906;2023-05-07T04:48:23;4.57;;;4.00;;
18716;SDS011;9487;50.892;6.906;2023-05-07T04:50:52;3.60;;;3.30;;
18716;SDS011;9487;50.892;6.906;2023-05-07T04:53:19;3.93;;;3.57;;
18716;SDS011;9487;50.892;6.906;2023-05-07T04:55:47;4.40;;;4.00;;
18716;SDS011;9487;50.892;6.906;2023-05-07T04:58:14;3.83;;;3.53;;
18716;SDS011;9487;50.892;6.906;2023-05-07T05:00:41;3.97;;;3.30;;
18716;SDS011;9487;50.892;6.906;2023-05-07T05:03:08;3.37;;;3.03;;
18716;SDS011;9487;50.892;6.906;2023-05-07T05:05:36;4.23;;;3.83;;
18716;SDS011;9487;50.892;6.906;2023-05-07T05:08:04;3.87;;;3.57;;
18716;SDS011;9487;50.892;6.906;2023-05-07T05:10:31;3.33;;;3.03;;
18716;SDS011;9487;50.892;6.906;2023-05-07T05:12:58;3.30;;;3.10;;
18716;SDS011;9487;50.892;6.906;2023-05-07T05:15:26;3.93;;;3.00;;
18716;SDS011;9487;50.892;6.906;2023-05-07T05:17:52;3.30;;;3.00;;
18716;SDS011;9487;50.892;6.906;2023-05-07T05:20:19;3.13;;;2.83;;
18716;SDS011;9487;50.892;6.906;2023-05-07T05:22:46;3.73;;;2.83;;
18716;SDS011;9487;50.892;6.906;2023-05-07T05:25:14;3.00;;;2.80;;
18716;SDS011;9487;50.892;6.906;2023-05-07T05:27:41;3.27;;;2.97;;
18716;SDS011;9487;50.892;6.906;2023-05-07T05:30:08;8.27;;;3.00;;
18716;SDS011;9487;50.892;6.906;2023-05-07T05:32:35;3.17;;;2.97;;
18716;SDS011;9487;50.892;6.906;2023-05-07T05:35:02;3.87;;;2.97;;
18716;SDS011;9487;50.892;6.906;2023-05-07T05:37:30;2.97;;;2.77;;
18716;SDS011;9487;50.892;6.906;2023-05-07T05:39:57;3.10;;;2.90;;
18716;SDS011;9487;50.892;6.906;2023-05-07T05:42:25;2.60;;;2.40;;
18716;SDS011;9487;50.892;6.906;2023-05-07T05:44:52;3.30;;;2.80;;
18716;SDS011;9487;50.892;6.906;2023-05-07T05:47:19;3.57;;;2.70;;
18716;SDS011;9487;50.892;6.906;2023-05-07T05:49:45;3.27;;;2.60;;
18716;SDS011;9487;50.892;6.906;2023-05-07T05:52:12;3.00;;;2.47;;
18716;SDS011;9487;50.892;6.906;2023-05-07T05:54:40;3.03;;;2.50;;
18716;SDS011;9487;50.892;6.906;2023-05-07T05:57:06;4.33;;;2.03;;
18716;SDS011;9487;50.892;6.906;2023-05-07T05:59:34;2.60;;;2.40;;
18716;SDS011;9487;50.892;6.906;2023-05-07T06:02:01;3.43;;;2.33;;
18716;SDS011;9487;50.892;6.906;2023-05-07T06:04:28;3.10;;;2.40;;
18716;SDS011;9487;50.892;6.906;2023-05-07T06:06:55;2.97;;;2.70;;
18716;SDS011;9487;50.892;6.906;2023-05-07T06:09:22;2.57;;;2.30;;
18716;SDS011;9487;50.892;6.906;2023-05-07T06:11:49;3.87;;;2.40;;
18716;SDS011;9487;50.892;6.906;2023-05-07T06:14:16;2.60;;;2.40;;
18716;SDS011;9487;50.892;6.906;2023-05-07T06:16:44;2.30;;;2.10;;
18716;SDS011;9487;50.892;6.906;2023-05-07T06:19:10;2.53;;;2.00;;
18716;SDS011;9487;50.892;6.906;2023-05-07T06:21:38;3.53;;;2.30;;
18716;SDS011;9487;50.892;6.906;2023-05-07T06:24:05;2.77;;;2.40;;
18716;SDS011;9487;50.892;6.906;2023-05-07T06:26:33;2.67;;;2.20;;
18716;SDS011;9487;50.892;6.906;2023-05-07T06:28:59;2.40;;;2.20;;
18716;SDS011;9487;50.892;6.906;2023-05-07T06:31:29;2.30;;;2.10;;
18716;SDS011;9487;50.892;6.906;2023-05-07T06:33:58;3.33;;;2.30;;
18716;SDS011;9487;50.892;6.906;2023-05-07T06:36:27;2.73;;;2.40;;
18716;SDS011;9487;50.892;6.906;2023-05-07T06:38:53;4.03;;;2.30;;
18716;SDS011;9487;50.892;6.906;2023-05-07T06:41:20;2.70;;;2.50;;
18716;SDS011;9487;50.892;6.906;2023-05-07T06:43:47;3.00;;;2.13;;
18716;SDS011;9487;50.892;6.906;2023-05-07T06:46:14;2.77;;;2.10;;
18716;SDS011;9487;50.892;6.906;2023-05-07T06:48:41;2.50;;;2.30;;
18716;SDS011;9487;50.892;6.906;2023-05-07T06:51:09;3.13;;;2.27;;
18716;SDS011;9487;50.892;6.906;2023-05-07T06:53:36;2.87;;;2.53;;
18716;SDS011;9487;50.892;6.906;2023-05-07T06:56:03;2.60;;;2.00;;
18716;SDS011;9487;50.892;6.906;2023-05-07T06:58:30;2.40;;;2.20;;
18716;SDS011;9487;50.892;6.906;2023-05-07T07:00:57;2.30;;;2.10;;
18716;SDS011;9487;50.892;6.906;2023-05-07T07:03:24;2.47;;;2.23;;
18716;SDS011;9487;50.892;6.906;2023-05-07T07:05:52;2.47;;;2.20;;
18716;SDS011;9487;50.892;6.906;2023-05-07T07:08:21;2.27;;;2.03;;
18716;SDS011;9487;50.892;6.906;2023-05-07T07:10:48;2.33;;;2.10;;
18716;SDS011;9487;50.892;6.906;2023-05-07T07:13:15;3.40;;;2.13;;
18716;SDS011;9487;50.892;6.906;2023-05-07T07:15:43;3.20;;;2.50;;
18716;SDS011;9487;50.892;6.906;2023-05-07T07:18:10;2.23;;;2.03;;
18716;SDS011;9487;50.892;6.906;2023-05-07T07:20:38;2.93;;;2.40;;
18716;SDS011;9487;50.892;6.906;2023-05-07T07:23:04;2.47;;;2.27;;
18716;SDS011;9487;50.892;6.906;2023-05-07T07:25:32;2.47;;;2.20;;
18716;SDS011;9487;50.892;6.906;2023-05-07T07:27:59;2.50;;;2.30;;
18716;SDS011;9487;50.892;6.906;2023-05-07T07:30:26;3.40;;;2.20;;
18716;SDS011;9487;50.892;6.906;2023-05-07T07:32:53;3.47;;;1.97;;
18716;SDS011;9487;50.892;6.906;2023-05-07T07:35:25;2.43;;;2.10;;
18716;SDS011;9487;50.892;6.906;2023-05-07T07:37:52;4.37;;;2.40;;
18716;SDS011;9487;50.892;6.906;2023-05-07T07:40:18;2.47;;;2.27;;
18716;SDS011;9487;50.892;6.906;2023-05-07T07:42:47;3.30;;;2.60;;
18716;SDS011;9487;50.892;6.906;2023-05-07T07:45:14;2.80;;;2.60;;
18716;SDS011;9487;50.892;6.906;2023-05-07T07:47:40;3.20;;;2.90;;
18716;SDS011;9487;50.892;6.906;2023-05-07T07:50:08;2.63;;;2.20;;
18716;SDS011;9487;50.892;6.906;2023-05-07T07:52:35;3.30;;;2.27;;
18716;SDS011;9487;50.892;6.906;2023-05-07T07:55:02;5.13;;;2.93;;
18716;SDS011;9487;50.892;6.906;2023-05-07T07:57:29;3.73;;;2.50;;
18716;SDS011;9487;50.892;6.906;2023-05-07T07:59:58;3.50;;;2.33;;
18716;SDS011;9487;50.892;6.906;2023-05-07T08:02:25;3.33;;;2.63;;
18716;SDS011;9487;50.892;6.906;2023-05-07T08:04:52;2.90;;;2.70;;
18716;SDS011;9487;50.892;6.906;2023-05-07T08:07:19;3.20;;;2.90;;
18716;SDS011;9487;50.892;6.906;2023-05-07T08:09:47;3.17;;;2.27;;
18716;SDS011;9487;50.892;6.906;2023-05-07T08:12:14;2.77;;;2.30;;
18716;SDS011;9487;50.892;6.906;2023-05-07T08:14:41;2.93;;;2.70;;
18716;SDS011;9487;50.892;6.906;2023-05-07T08:17:09;2.63;;;2.43;;
18716;SDS011;9487;50.892;6.906;2023-05-07T08:19:36;3.43;;;2.30;;
18716;SDS011;9487;50.892;6.906;2023-05-07T08:22:03;3.80;;;3.20;;
18716;SDS011;9487;50.892;6.906;2023-05-07T08:24:30;3.43;;;2.67;;
18716;SDS011;9487;50.892;6.906;2023-05-07T08:26:57;3.70;;;2.33;;
18716;SDS011;9487;50.892;6.906;2023-05-07T08:29:24;2.40;;;2.20;;
18716;SDS011;9487;50.892;6.906;2023-05-07T08:31:50;4.50;;;2.47;;
18716;SDS011;9487;50.892;6.906;2023-05-07T08:34:19;2.80;;;2.20;;
18716;SDS011;9487;50.892;6.906;2023-05-07T08:36:46;2.63;;;2.43;;
18716;SDS011;9487;50.892;6.906;2023-05-07T08:39:13;3.83;;;2.50;;
18716;SDS011;9487;50.892;6.906;2023-05-07T08:41:41;3.00;;;2.70;;
18716;SDS011;9487;50.892;6.906;2023-05-07T08:44:11;2.40;;;2.03;;
18716;SDS011;9487;50.892;6.906;2023-05-07T08:46:39;3.87;;;3.03;;
18716;SDS011;9487;50.892;6.906;2023-05-07T08:49:08;2.53;;;2.33;;
18716;SDS011;9487;50.892;6.906;2023-05-07T08:51:36;2.73;;;2.30;;
18716;SDS011;9487;50.892;6.906;2023-05-07T08:54:03;3.77;;;2.47;;
18716;SDS011;9487;50.892;6.906;2023-05-07T08:56:31;2.80;;;2.33;;
18716;SDS011;9487;50.892;6.906;2023-05-07T08:59:01;2.87;;;2.53;;
18716;SDS011;9487;50.892;6.906;2023-05-07T09:01:28;2.53;;;2.33;;
18716;SDS011;9487;50.892;6.906;2023-05-07T09:03:55;2.43;;;2.20;;
18716;SDS011;9487;50.892;6.906;2023-05-07T09:06:23;2.83;;;2.50;;
18716;SDS011;9487;50.892;6.906;2023-05-07T09:08:51;2.90;;;2.57;;
18716;SDS011;9487;50.892;6.906;2023-05-07T09:11:20;3.40;;;2.70;;
18716;SDS011;9487;50.892;6.906;2023-05-07T09:13:48;3.03;;;2.30;;
18716;SDS011;9487;50.892;6.906;2023-05-07T09:16:20;2.60;;;2.40;;
18716;SDS011;9487;50.892;6.906;2023-05-07T09:18:48;3.47;;;2.33;;
18716;SDS011;9487;50.892;6.906;2023-05-07T09:21:18;2.33;;;2.13;;
18716;SDS011;9487;50.892;6.906;2023-05-07T09:23:47;2.40;;;2.20;;
18716;SDS011;9487;50.892;6.906;2023-05-07T09:26:16;3.40;;;3.10;;
18716;SDS011;9487;50.892;6.906;2023-05-07T09:28:43;2.50;;;2.30;;
18716;SDS011;9487;50.892;6.906;2023-05-07T09:31:11;4.50;;;2.30;;
18716;SDS011;9487;50.892;6.906;2023-05-07T09:33:38;2.50;;;2.30;;
18716;SDS011;9487;50.892;6.906;2023-05-07T09:36:06;3.43;;;2.60;;
18716;SDS011;9487;50.892;6.906;2023-05-07T09:38:35;2.60;;;2.40;;
18716;SDS011;9487;50.892;6.906;2023-05-07T09:41:03;2.40;;;2.20;;
18716;SDS011;9487;50.892;6.906;2023-05-07T09:43:35;3.03;;;2.50;;
18716;SDS011;9487;50.892;6.906;2023-05-07T09:46:06;3.17;;;2.53;;
18716;SDS011;9487;50.892;6.906;2023-05-07T09:48:37;2.93;;;2.20;;
18716;SDS011;9487;50.892;6.906;2023-05-07T09:51:06;2.90;;;2.57;;
18716;SDS011;9487;50.892;6.906;2023-05-07T09:53:44;4.73;;;2.53;;
18716;SDS011;9487;50.892;6.906;2023-05-07T09:56:12;3.70;;;2.37;;
18716;SDS011;9487;50.892;6.906;2023-05-07T09:58:42;3.70;;;2.60;;
18716;SDS011;9487;50.892;6.906;2023-05-07T10:01:11;2.70;;;2.50;;
18716;SDS011;9487;50.892;6.906;2023-05-07T10:03:39;4.80;;;2.57;;
18716;SDS011;9487;50.892;6.906;2023-05-07T10:06:08;3.10;;;2.50;;
18716;SDS011;9487;50.892;6.906;2023-05-07T10:08:36;2.37;;;2.17;;
18716;SDS011;9487;50.892;6.906;2023-05-07T10:11:03;2.70;;;2.50;;
18716;SDS011;9487;50.892;6.906;2023-05-07T10:13:31;3.10;;;2.70;;
18716;SDS011;9487;50.892;6.906;2023-05-07T10:15:59;5.83;;;2.43;;
18716;SDS011;9487;50.892;6.906;2023-05-07T10:18:27;2.60;;;2.40;;
18716;SDS011;9487;50.892;6.906;2023-05-07T10:20:58;3.03;;;2.57;;
18716;SDS011;9487;50.892;6.906;2023-05-07T10:23:30;3.27;;;2.60;;
18716;SDS011;9487;50.892;6.906;2023-05-07T10:25:59;3.30;;;2.80;;
18716;SDS011;9487;50.892;6.906;2023-05-07T10:28:30;2.60;;;2.30;;
18716;SDS011;9487;50.892;6.906;2023-05-07T10:31:08;3.00;;;2.80;;
18716;SDS011;9487;50.892;6.906;2023-05-07T10:33:44;2.80;;;2.60;;
18716;SDS011;9487;50.892;6.906;2023-05-07T10:36:15;2.50;;;2.30;;
18716;SDS011;9487;50.892;6.906;2023-05-07T10:38:43;2.87;;;2.30;;
18716;SDS011;9487;50.892;6.906;2023-05-07T10:41:11;2.97;;;2.43;;
18716;SDS011;9487;50.892;6.906;2023-05-07T10:43:39;2.30;;;2.10;;
18716;SDS011;9487;50.892;6.906;2023-05-07T10:46:11;3.20;;;2.40;;
18716;SDS011;9487;50.892;6.906;2023-05-07T10:51:37;2.50;;;2.30;;
18716;SDS011;9487;50.892;6.906;2023-05-07T10:54:20;2.73;;;2.30;;
18716;SDS011;9487;50.892;6.906;2023-05-07T10:56:48;2.60;;;2.40;;
18716;SDS011;9487;50.892;6.906;2023-05-07T10:59:31;2.30;;;2.10;;
18716;SDS011;9487;50.892;6.906;2023-05-07T11:02:09;3.67;;;2.17;;
18716;SDS011;9487;50.892;6.906;2023-05-07T11:04:39;2.20;;;1.77;;
18716;SDS011;9487;50.892;6.906;2023-05-07T11:07:14;1.80;;;1.70;;
18716;SDS011;9487;50.892;6.906;2023-05-07T11:09:54;2.50;;;2.00;;
18716;SDS011;9487;50.892;6.906;2023-05-07T11:18:09;2.10;;;1.90;;
18716;SDS011;9487;50.892;6.906;2023-05-07T11:20:44;2.65;;;1.90;;
18716;SDS011;9487;50.892;6.906;2023-05-07T11:26:12;2.97;;;1.90;;
18716;SDS011;9487;50.892;6.906;2023-05-07T11:28:40;2.35;;;1.73;;
18716;SDS011;9487;50.892;6.906;2023-05-07T11:31:08;2.10;;;1.90;;
18716;SDS011;9487;50.892;6.906;2023-05-07T11:33:37;1.75;;;1.50;;
18716;SDS011;9487;50.892;6.906;2023-05-07T11:36:05;3.45;;;1.88;;
18716;SDS011;9487;50.892;6.906;2023-05-07T11:38:34;2.50;;;2.10;;
18716;SDS011;9487;50.892;6.906;2023-05-07T11:41:02;1.90;;;1.75;;
18716;SDS011;9487;50.892;6.906;2023-05-07T11:43:30;3.55;;;2.15;;
18716;SDS011;9487;50.892;6.906;2023-05-07T11:46:04;2.20;;;1.85;;
18716;SDS011;9487;50.892;6.906;2023-05-07T11:48:33;2.15;;;1.70;;
18716;SDS011;9487;50.892;6.906;2023-05-07T11:51:01;3.75;;;1.90;;
18716;SDS011;9487;50.892;6.906;2023-05-07T11:53:35;1.80;;;1.70;;
18716;SDS011;9487;50.892;6.906;2023-05-07T11:56:05;1.83;;;1.65;;
18716;SDS011;9487;50.892;6.906;2023-05-07T11:58:32;2.07;;;1.80;;
18716;SDS011;9487;50.892;6.906;2023-05-07T12:00:59;2.63;;;2.30;;
18716;SDS011;9487;50.892;6.906;2023-05-07T12:03:26;3.53;;;2.10;;
18716;SDS011;9487;50.892;6.906;2023-05-07T12:05:53;1.97;;;1.73;;
18716;SDS011;9487;50.892;6.906;2023-05-07T12:08:22;1.90;;;1.70;;
18716;SDS011;9487;50.892;6.906;2023-05-07T12:10:49;3.20;;;1.90;;
18716;SDS011;9487;50.892;6.906;2023-05-07T12:13:17;2.30;;;2.10;;
18716;SDS011;9487;50.892;6.906;2023-05-07T12:15:45;2.63;;;1.90;;
18716;SDS011;9487;50.892;6.906;2023-05-07T12:18:12;2.40;;;2.00;;
18716;SDS011;9487;50.892;6.906;2023-05-07T12:20:39;2.27;;;2.07;;
18716;SDS011;9487;50.892;6.906;2023-05-07T12:23:06;4.67;;;4.27;;
18716;SDS011;9487;50.892;6.906;2023-05-07T12:25:35;3.07;;;2.00;;
18716;SDS011;9487;50.892;6.906;2023-05-07T12:28:02;3.07;;;2.47;;
18716;SDS011;9487;50.892;6.906;2023-05-07T12:30:30;2.50;;;2.30;;
18716;SDS011;9487;50.892;6.906;2023-05-07T12:32:57;2.20;;;2.00;;
18716;SDS011;9487;50.892;6.906;2023-05-07T12:35:27;2.13;;;1.80;;
18716;SDS011;9487;50.892;6.906;2023-05-07T12:37:54;2.97;;;2.10;;
18716;SDS011;9487;50.892;6.906;2023-05-07T12:40:21;2.70;;;2.10;;
18716;SDS011;9487;50.892;6.906;2023-05-07T12:42:52;2.30;;;2.07;;
18716;SDS011;9487;50.892;6.906;2023-05-07T12:45:20;2.40;;;2.20;;
18716;SDS011;9487;50.892;6.906;2023-05-07T12:47:47;2.30;;;2.10;;
18716;SDS011;9487;50.892;6.906;2023-05-07T12:50:15;2.23;;;2.03;;
18716;SDS011;9487;50.892;6.906;2023-05-07T12:52:42;3.33;;;2.20;;
18716;SDS011;9487;50.892;6.906;2023-05-07T12:55:11;5.07;;;2.30;;
18716;SDS011;9487;50.892;6.906;2023-05-07T12:57:41;3.10;;;2.03;;
18716;SDS011;9487;50.892;6.906;2023-05-07T13:00:11;3.00;;;2.00;;
18716;SDS011;9487;50.892;6.906;2023-05-07T13:02:39;2.33;;;1.90;;
18716;SDS011;9487;50.892;6.906;2023-05-07T13:05:09;2.17;;;1.97;;
18716;SDS011;9487;50.892;6.906;2023-05-07T13:07:36;1.90;;;1.80;;
18716;SDS011;9487;50.892;6.906;2023-05-07T13:10:03;2.30;;;2.10;;
18716;SDS011;9487;50.892;6.906;2023-05-07T13:12:31;2.37;;;2.17;;
18716;SDS011;9487;50.892;6.906;2023-05-07T13:14:58;2.97;;;2.50;;
18716;SDS011;9487;50.892;6.906;2023-05-07T13:17:26;2.23;;;2.10;;
18716;SDS011;9487;50.892;6.906;2023-05-07T13:19:53;2.90;;;2.10;;
18716;SDS011;9487;50.892;6.906;2023-05-07T13:22:20;3.57;;;2.30;;
18716;SDS011;9487;50.892;6.906;2023-05-07T13:24:47;4.47;;;2.53;;
18716;SDS011;9487;50.892;6.906;2023-05-07T13:27:13;2.67;;;2.30;;
18716;SDS011;9487;50.892;6.906;2023-05-07T13:29:40;2.60;;;1.83;;
18716;SDS011;9487;50.892;6.906;2023-05-07T13:32:07;2.57;;;2.10;;
18716;SDS011;9487;50.892;6.906;2023-05-07T13:34:35;3.43;;;2.27;;
18716;SDS011;9487;50.892;6.906;2023-05-07T13:37:02;2.73;;;2.33;;
18716;SDS011;9487;50.892;6.906;2023-05-07T13:39:29;2.50;;;2.30;;
18716;SDS011;9487;50.892;6.906;2023-05-07T13:41:56;3.27;;;2.70;;
18716;SDS011;9487;50.892;6.906;2023-05-07T13:44:23;4.30;;;3.03;;
18716;SDS011;9487;50.892;6.906;2023-05-07T13:46:50;4.20;;;3.20;;
18716;SDS011;9487;50.892;6.906;2023-05-07T13:49:17;4.60;;;3.60;;
18716;SDS011;9487;50.892;6.906;2023-05-07T13:51:45;4.87;;;3.67;;
18716;SDS011;9487;50.892;6.906;2023-05-07T13:54:12;4.33;;;3.60;;
18716;SDS011;9487;50.892;6.906;2023-05-07T13:56:39;6.40;;;3.83;;
18716;SDS011;9487;50.892;6.906;2023-05-07T13:59:05;5.23;;;4.20;;
18716;SDS011;9487;50.892;6.906;2023-05-07T14:01:32;6.13;;;4.17;;
18716;SDS011;9487;50.892;6.906;2023-05-07T14:03:59;5.07;;;4.07;;
18716;SDS011;9487;50.892;6.906;2023-05-07T14:06:26;4.40;;;4.00;;
18716;SDS011;9487;50.892;6.906;2023-05-07T14:08:54;4.47;;;3.90;;
18716;SDS011;9487;50.892;6.906;2023-05-07T14:11:23;4.27;;;3.87;;
18716;SDS011;9487;50.892;6.906;2023-05-07T14:13:50;4.13;;;3.73;;
18716;SDS011;9487;50.892;6.906;2023-05-07T14:16:16;5.23;;;3.80;;
18716;SDS011;9487;50.892;6.906;2023-05-07T14:18:43;4.13;;;3.77;;
18716;SDS011;9487;50.892;6.906;2023-05-07T14:21:10;4.83;;;3.90;;
18716;SDS011;9487;50.892;6.906;2023-05-07T14:23:37;4.70;;;4.00;;
18716;SDS011;9487;50.892;6.906;2023-05-07T14:26:06;4.60;;;4.20;;
18716;SDS011;9487;50.892;6.906;2023-05-07T14:28:33;4.80;;;4.23;;
18716;SDS011;9487;50.892;6.906;2023-05-07T14:31:00;5.77;;;3.80;;
18716;SDS011;9487;50.892;6.906;2023-05-07T14:33:27;4.13;;;3.70;;
18716;SDS011;9487;50.892;6.906;2023-05-07T14:35:54;6.23;;;3.87;;
18716;SDS011;9487;50.892;6.906;2023-05-07T14:38:21;4.67;;;4.17;;
18716;SDS011;9487;50.892;6.906;2023-05-07T14:40:48;4.97;;;4.20;;
18716;SDS011;9487;50.892;6.906;2023-05-07T14:43:16;5.00;;;4.50;;
18716;SDS011;9487;50.892;6.906;2023-05-07T14:45:42;5.73;;;4.63;;
18716;SDS011;9487;50.892;6.906;2023-05-07T14:48:09;5.50;;;5.00;;
18716;SDS011;9487;50.892;6.906;2023-05-07T14:50:40;5.77;;;5.23;;
18716;SDS011;9487;50.892;6.906;2023-05-07T14:53:06;7.30;;;5.30;;
18716;SDS011;9487;50.892;6.906;2023-05-07T14:55:33;6.10;;;5.50;;
18716;SDS011;9487;50.892;6.906;2023-05-07T14:58:00;5.73;;;5.20;;
18716;SDS011;9487;50.892;6.906;2023-05-07T15:00:29;6.43;;;5.80;;
18716;SDS011;9487;50.892;6.906;2023-05-07T15:02:56;5.73;;;5.23;;
18716;SDS011;9487;50.892;6.906;2023-05-07T15:05:30;6.57;;;5.63;;
18716;SDS011;9487;50.892;6.906;2023-05-07T15:07:57;6.53;;;5.50;;
18716;SDS011;9487;50.892;6.906;2023-05-07T15:10:24;6.57;;;5.53;;
18716;SDS011;9487;50.892;6.906;2023-05-07T15:12:51;6.57;;;5.90;;
18716;SDS011;9487;50.892;6.906;2023-05-07T15:15:18;8.13;;;6.13;;
18716;SDS011;9487;50.892;6.906;2023-05-07T15:17:46;7.13;;;4.30;;